Coventry Sprint Triathlon - Sunday 3rd June 2012 - 400m Swim - 20km Cycle - 5km Run

Results by Galeforce Events

Pos FirstName LastName Race No Time Category Categ Pos Gender Gender Pos Club Swim Swim PACE SwimOverallPos T1 Cycle Cycle PACE CycleOverallPos T2 Run Run PACE RunOverallPos Finish Status
1 Richard Billington 720 01:04:00 Ages 45 - 49 1 Male 1 1485 Tri Club 00:06:50 1:42 sec/100m 13 00:00:57 00:36:05 26.6 m/hr 10 00:00:46 00:19:20 6:26 min/m 6 Finished
2 Richard Merrell 729 01:04:18 Ages 40 - 44 1 Male 2 SPA STRIDERS 00:08:05 2:01 sec/100m 45 00:01:00 00:35:01 27.4 m/hr 9 00:00:52 00:19:18 6:26 min/m 5 Finished
3 Bruno Nikoloff 706 01:04:39 Ages 45 - 49 2 Male 3 Charnwood Tri Club 00:06:10 1:32 sec/100m 4 00:00:47 00:38:01 25.2 m/hr 13 00:01:04 00:18:35 6:11 min/m 2 Finished
4 Colin Day 705 01:04:41 Ages 30 - 34 1 Male 4 Meynell Valley Hunters Triathlon Club 00:06:11 1:32 sec/100m 5 00:00:48 00:36:39 26.2 m/hr 11 00:00:46 00:20:16 6:45 min/m 12 Finished
5 Jason Dimmock 718 01:06:19 Ages 40 - 44 2 Male 5   00:07:03 1:45 sec/100m 14 00:35:56 00:00:53 1069 m/hr 2 00:00:37 00:21:47 7:15 min/m 20 Finished
6 Paul Brown 721 01:07:21 Ages 40 - 44 3 Male 6   00:06:49 1:42 sec/100m 11 00:00:50 00:38:12 25.1 m/hr 14 00:00:42 00:20:46 6:55 min/m 13 Finished
7 Simon Shepherd 727 01:07:23 Ages 30 - 34 2 Male 7 Leamington C&AC 00:07:15 1:48 sec/100m 21 00:38:35 00:00:50 1147 m/hr 1 00:00:48 00:19:54 6:38 min/m 9 Finished
8 Mark Stewart 746 01:08:23 Ages 45 - 49 3 Male 8 coventry triathletes 00:08:05 2:01 sec/100m 46 00:38:47 00:00:55 1042 m/hr 3 00:01:26 00:19:09 6:23 min/m 3 Finished
9 Matt Hallam 717 01:08:53 Ages 40 - 44 4 Male 9   00:06:42 1:40 sec/100m 9 00:01:06 00:33:38 28.5 m/hr 8 00:00:50 00:26:35 8:51 min/m 91 Finished
10 Robert Cogings 716 01:09:33 Ages 40 - 44 5 Male 10 Derby Triathlon Club 00:07:11 1:47 sec/100m 19 00:00:58 00:38:42 24.8 m/hr 16 00:00:55 00:21:46 7:15 min/m 19 Finished
11 Tom Collinge 724 01:10:02 Ages 20 - 24 1 Male 11   00:07:03 1:45 sec/100m 15 00:01:16 00:41:04 23.4 m/hr 28 00:00:38 00:19:59 6:39 min/m 10 Finished
12 James Facer-Childs 704 01:10:12 Ages 25 - 29 1 Male 12 MFL 4 Life 00:06:14 1:33 sec/100m 6 00:01:03 00:41:11 23.3 m/hr 30 00:00:52 00:20:50 6:56 min/m 14 Finished
13 David Maxwell 703 01:10:34 Age 19 1 Male 13   00:04:53 1:13 sec/100m 1 00:01:00 00:45:09 21.3 m/hr 72 00:00:59 00:18:31 6:10 min/m 1 Finished
14 Guy Dunwoody 723 01:11:27 Ages 35 - 39 1 Male 14   00:07:55 1:58 sec/100m 35 00:01:08 00:40:19 23.8 m/hr 23 00:01:13 00:20:51 6:57 min/m 15 Finished
15 Emma Hornby 725 01:11:28 Ages 35 - 39 1 Female 1   00:07:05 1:46 sec/100m 16 00:00:44 00:39:32 24.3 m/hr 18 00:00:52 00:23:13 7:44 min/m 45 Finished
16 Jon Archer 752 01:11:28 Ages 40 - 44 6 Male 15 Leicester Tri Club 00:07:36 1:54 sec/100m 29 00:01:57 00:38:40 24.8 m/hr 15 00:00:59 00:22:14 7:24 min/m 23 Finished
17 Mark Urbanowski 815 01:11:34 Ages 30 - 34 3 Male 16 SPA STRIDERS 00:10:11 2:32 sec/100m 122 00:01:27 00:39:03 24.6 m/hr 17 00:00:56 00:19:54 6:38 min/m 8 Finished
18 Dave Bethell 714 01:11:47 Ages 50 - 54 1 Male 17   00:06:50 1:42 sec/100m 12 00:01:10 00:39:35 24.2 m/hr 19 00:01:10 00:23:01 7:40 min/m 36 Finished
19 Guy Dayman 730 01:12:12 Ages 35 - 39 2 Male 18 1485 Tri Club 00:07:25 1:51 sec/100m 26 00:01:19 00:40:43 23.6 m/hr 25 00:00:54 00:21:49 7:16 min/m 21 Finished
20 Conor Shepherd 794 01:12:23 Ages 20 - 24 2 Male 19 Warwick University Triathlon Club 00:09:33 2:23 sec/100m 96 00:02:11 00:39:50 24.1 m/hr 20 00:01:31 00:19:16 6:25 min/m 4 Finished
21 Michael Hale 734 01:12:23 Ages 25 - 29 2 Male 20 MFL 4 Life 00:07:09 1:47 sec/100m 17 00:01:43 00:41:08 23.3 m/hr 29 00:01:26 00:20:56 6:58 min/m 16 Finished
22 Neill Morgan 745 01:12:24 Ages 50 - 54 2 Male 21 coventry triathletes 00:08:00 2:00 sec/100m 41 00:02:06 00:37:51 25.4 m/hr 12 00:01:11 00:23:15 7:45 min/m 46 Finished
23 Christopher Parsons 722 01:12:32 Ages 45 - 49 4 Male 22 Rugby Tri 00:07:32 1:53 sec/100m 27 00:01:10 00:39:51 24.1 m/hr 21 00:01:00 00:22:57 7:39 min/m 35 Finished
24 Mark Styles 739 01:13:02 Ages 25 - 29 3 Male 23 1485 Tri Club 00:07:45 1:56 sec/100m 33 00:40:02 00:01:01 941 m/hr 5 00:01:20 00:22:53 7:37 min/m 31 Finished
25 Matthew Williams 708 01:13:12 Ages 35 - 39 3 Male 24   00:06:37 1:39 sec/100m 8 00:00:52 00:41:48 23.0 m/hr 36 00:00:43 00:23:10 7:43 min/m 41 Finished
26 Simon Earley 735 01:13:22 Ages 45 - 49 5 Male 25 1485 Tri Club 00:07:49 1:57 sec/100m 34 00:02:07 00:42:33 22.6 m/hr 45 00:01:12 00:19:40 6:33 min/m 7 Finished
27 Cathy Fenn 719 01:14:02 Ages 40 - 44 1 Female 2 Warwick University Triathlon Club 00:07:40 1:55 sec/100m 31 00:01:34 00:40:19 23.8 m/hr 24 00:01:17 00:23:09 7:43 min/m 40 Finished
28 Richard Bruce 799 01:14:11 Ages 35 - 39 4 Male 26 coventry triathletes 00:09:05 2:16 sec/100m 76 00:01:06 00:42:03 22.8 m/hr 40 00:00:58 00:20:58 6:59 min/m 17 Finished
29 Paul Hilton 780 01:14:43 Ages 30 - 34 4 Male 27 RAF Triathlon 00:08:51 2:12 sec/100m 69 00:01:01 00:41:04 23.4 m/hr 27 00:00:55 00:22:51 7:37 min/m 30 Finished
30 Graeme Shaw 732 01:14:47 Ages 30 - 34 5 Male 28   00:07:57 1:59 sec/100m 38 00:02:06 00:41:27 23.2 m/hr 32 00:00:58 00:22:16 7:25 min/m 24 Finished
31 Julien Hoyez 753 01:14:58 Ages 25 - 29 4 Male 29   00:07:38 1:54 sec/100m 30 00:01:38 00:41:59 22.9 m/hr 39 00:01:37 00:22:03 7:21 min/m 22 Finished
32 Ally Jones 747 01:15:05 Ages 40 - 44 7 Male 30 Nuneaton Triathlon Club 00:07:24 1:51 sec/100m 25 00:01:41 00:39:53 24.1 m/hr 22 00:01:11 00:24:55 8:18 min/m 71 Finished
33 Keith Burdett 715 01:15:23 Ages 50 - 54 3 Male 31 coventry triathletes 00:06:28 1:37 sec/100m 7 00:01:09 00:41:16 23.3 m/hr 31 00:01:09 00:25:19 8:26 min/m 78 Finished
34 Alan Klein 817 01:17:01 Ages 50 - 54 4 Male 32   00:09:59 2:29 sec/100m 113 00:01:31 00:41:36 23.1 m/hr 34 00:01:07 00:22:45 7:35 min/m 29 Finished
35 Guy Bicknell 764 01:17:15 Ages 30 - 34 6 Male 33 coventry triathletes 00:08:04 2:01 sec/100m 44 00:01:23 00:42:30 22.6 m/hr 44 00:02:04 00:23:12 7:44 min/m 44 Finished
36 Kevin Anson 771 01:17:25 Ages 45 - 49 6 Male 34 Black Country Triathletes 00:08:22 2:05 sec/100m 49 00:01:22 00:42:15 22.7 m/hr 43 00:01:23 00:24:01 8:00 min/m 59 Finished
37 Tim Miles 755 01:17:28 Ages 45 - 49 7 Male 35   00:08:40 2:10 sec/100m 61 00:02:31 00:41:42 23.0 m/hr 35 00:01:48 00:22:44 7:34 min/m 28 Finished
38 John Riseam 801 01:17:30 Ages 35 - 39 5 Male 36   00:09:32 2:23 sec/100m 95 00:02:11 00:40:48 23.5 m/hr 26 00:01:51 00:23:07 7:42 min/m 39 Finished
39 Paul Moorcroft 768 01:17:43 Ages 30 - 34 7 Male 37   00:08:51 2:12 sec/100m 70 00:01:27 00:45:04 21.3 m/hr 70 00:01:19 00:20:59 6:59 min/m 18 Finished
40 Graham Thomas 766 01:18:00 Ages 50 - 54 5 Male 38 Cherwell R & J 00:07:57 1:59 sec/100m 37 00:01:40 00:42:43 22.5 m/hr 48 00:01:14 00:24:24 8:08 min/m 63 Finished
41 Andrew Miles 770 01:18:01 Ages 45 - 49 8 Male 39 coventry triathletes 00:08:00 2:00 sec/100m 40 00:02:05 00:43:00 22.3 m/hr 52 00:01:43 00:23:12 7:44 min/m 42 Finished
42 Cameron Thomson 759 01:18:05 Ages 30 - 34 8 Male 40   00:08:54 2:13 sec/100m 72 00:02:01 00:42:08 22.8 m/hr 42 00:01:26 00:23:33 7:51 min/m 49 Finished
43 Daniel Mitchell 862 01:18:13 Ages 25 - 29 5 Male 41 Warwick University Triathlon Club 00:07:33 1:53 sec/100m 28 00:02:29 00:44:44 21.5 m/hr 64 00:00:52 00:22:34 7:31 min/m 27 Finished
44 Jack Carlile 769 01:18:48 Ages 30 - 34 9 Male 42   00:07:58 1:59 sec/100m 39 00:01:21 00:43:43 22.0 m/hr 55 00:01:03 00:24:42 8:14 min/m 68 Finished
45 Paul Elvy 814 01:18:57 Ages 45 - 49 9 Male 43   00:09:29 2:22 sec/100m 90 00:01:52 00:41:49 23.0 m/hr 37 00:01:30 00:24:16 8:05 min/m 61 Finished
46 Jon Sarriegui 751 01:19:09 Ages 35 - 39 6 Male 44 Worcester Triathlon Club 00:07:55 1:58 sec/100m 36 00:01:14 00:44:10 21.7 m/hr 60 00:00:57 00:24:51 8:17 min/m 70 Finished
47 Andrew Marsh 837 01:19:16 Ages 45 - 49 10 Male 45   00:10:43 2:40 sec/100m 134 00:01:46 00:41:33 23.1 m/hr 33 00:00:57 00:24:15 8:04 min/m 60 Finished
48 Alexander Considine 710 01:19:50 Ages 17 -18 1 Male 46 Rugby Triathlon Club 00:06:49 1:42 sec/100m 10 00:01:17 00:47:00 20.4 m/hr 85 00:01:15 00:23:27 7:49 min/m 47 Finished
49 Craig Bragg 793 01:19:55 Ages 25 - 29 6 Male 47   00:08:32 2:08 sec/100m 58 00:01:55 00:44:14 21.7 m/hr 61 00:01:27 00:23:46 7:55 min/m 56 Finished
50 Darron Handley 765 01:19:59 Ages 45 - 49 11 Male 48 SPHINX 00:09:34 2:23 sec/100m 97 00:02:30 00:43:37 22.0 m/hr 54 00:01:21 00:22:54 7:38 min/m 32 Finished
51 Stuart Dowell 818 01:20:04 Ages 20 - 24 3 Male 49   00:09:45 2:26 sec/100m 105 00:02:41 00:42:40 22.5 m/hr 47 00:01:17 00:23:40 7:53 min/m 52 Finished
52 Wayne Broadbent 758 01:20:11 Ages 30 - 34 10 Male 50 SPHINX AC 00:08:31 2:07 sec/100m 56 00:01:45 00:44:48 21.4 m/hr 65 00:01:23 00:23:42 7:54 min/m 53 Finished
53 Derek Lawlor 806 01:20:20 Ages 50 - 54 6 Male 51   00:09:50 2:27 sec/100m 108 00:02:35 00:42:06 22.8 m/hr 41 00:01:51 00:23:56 7:58 min/m 58 Finished
54 Ian Sutherland 790 01:20:27 Ages 50 - 54 7 Male 52   00:09:55 2:28 sec/100m 110 00:01:18 00:43:26 22.1 m/hr 53 00:01:15 00:24:31 8:10 min/m 66 Finished
55 Claire James 773 01:20:49 Ages 40 - 44 2 Female 3   00:08:36 2:09 sec/100m 59 00:01:26 00:42:46 22.4 m/hr 49 00:00:58 00:27:00 9:00 min/m 100 Finished
56 Michael St John 841 01:21:00 Ages 50 - 54 8 Male 53   00:10:04 2:31 sec/100m 114 00:45:45 00:01:01 931 m/hr 6 00:01:10 00:22:57 7:39 min/m 34 Finished
57 Russell Towlson 800 01:21:00 Ages 50 - 54 9 Male 54   00:10:09 2:32 sec/100m 120 00:02:06 00:41:56 22.9 m/hr 38 00:01:01 00:25:46 8:35 min/m 83 Finished
58 Hamilton Ngan 783 01:21:01 Ages 40 - 44 8 Male 55   00:08:57 2:14 sec/100m 73 00:02:04 00:45:12 21.2 m/hr 73 00:01:01 00:23:46 7:55 min/m 55 Finished
59 Benjamin Chattell 750 01:21:21 Ages 20 - 24 4 Male 56 coventry triathletes 00:08:08 2:02 sec/100m 47 00:45:38 00:01:05 875 m/hr 7 00:01:24 00:25:03 8:21 min/m 75 Finished
60 Darren Hutchinson 826 01:21:29 Ages 30 - 34 11 Male 57 binley fire station white watch 00:08:29 2:07 sec/100m 52 00:01:53 00:45:23 21.2 m/hr 74 00:01:23 00:24:19 8:06 min/m 62 Finished
61 Tim Cole 749 01:21:35 Ages 50 - 54 10 Male 58   00:07:17 1:49 sec/100m 22 00:02:23 00:44:27 21.6 m/hr 62 00:01:58 00:25:28 8:29 min/m 82 Finished
62 Paul Robbins 740 01:21:45 Ages 35 - 39 7 Male 59 NORTHBROOK AC 00:07:10 1:47 sec/100m 18 00:01:06 00:47:48 20.1 m/hr 92 00:01:03 00:24:36 8:12 min/m 67 Finished
63 Lee James Loughran 887 01:21:47 Ages 35 - 39 8 Male 60   00:09:37 2:24 sec/100m 99 00:03:04 00:42:59 22.3 m/hr 51 00:01:21 00:24:44 8:14 min/m 69 Finished
64 Richard Barnes 822 01:22:05 Ages 45 - 49 12 Male 61   00:08:00 2:00 sec/100m 42 00:02:18 00:42:55 22.4 m/hr 50 00:02:15 00:26:35 8:51 min/m 92 Finished
65 Mark Dolphin 805 01:22:08 Ages 45 - 49 13 Male 62   00:08:47 2:11 sec/100m 66 00:02:28 00:43:51 21.9 m/hr 57 00:01:50 00:25:10 8:23 min/m 76 Finished
66 Paul Fensome 781 01:22:20 Ages 50 - 54 11 Male 63 Evesham Vale Triathletes EVT 00:08:46 2:11 sec/100m 65 00:01:44 00:45:34 21.1 m/hr 76 00:00:57 00:25:17 8:25 min/m 77 Finished
67 Polly Arnold 754 01:22:24 Ages 30 - 34 1 Female 4 Worcester Triathlon Club 00:08:32 2:08 sec/100m 57 00:01:34 00:46:31 20.6 m/hr 81 00:00:46 00:24:59 8:19 min/m 73 Finished
68 Peter Schofield 776 01:22:50 Ages 50 - 54 12 Male 64 coventry triathletes 00:09:30 2:22 sec/100m 92 00:04:07 00:42:37 22.5 m/hr 46 00:04:04 00:22:31 7:30 min/m 26 Finished
69 Joel Lewis 856 01:23:09 Ages 25 - 29 7 Male 65   00:11:26 2:51 sec/100m 144 00:01:37 00:44:55 21.4 m/hr 66 00:00:41 00:24:29 8:09 min/m 64 Finished
70 Daniel Stannard 789 01:23:15 Ages 35 - 39 9 Male 66   00:09:08 2:17 sec/100m 79 00:48:41 00:00:59 965 m/hr 4 00:01:29 00:22:56 7:38 min/m 33 Finished
71 Gareth Parker 707 01:23:43 Ages 50 - 54 13 Male 67 Nuneaton Triathlon Club 00:05:57 1:29 sec/100m 3 00:02:04 00:47:04 20.4 m/hr 86 00:01:16 00:27:21 9:07 min/m 106 Finished
72 Rebecca Partridge 733 01:23:51 Ages 25 - 29 1 Female 5   00:07:19 1:49 sec/100m 23 00:01:09 00:45:53 20.9 m/hr 79 00:01:45 00:27:43 9:14 min/m 108 Finished
73 Andy Overend 726 01:23:53 Ages 50 - 54 14 Male 68   00:09:11 2:17 sec/100m 81 00:01:16 00:44:00 21.8 m/hr 58 00:01:03 00:28:21 9:27 min/m 116 Finished
74 Jon Chambers 833 01:24:09 Ages 40 - 44 9 Male 69   00:09:51 2:27 sec/100m 109 00:02:37 00:45:44 21.0 m/hr 77 00:01:26 00:24:30 8:10 min/m 65 Finished
75 Dai Stokes 851 01:24:23 Ages 55 - 59 1 Male 70   00:09:40 2:25 sec/100m 102 00:02:30 00:45:54 20.9 m/hr 80 00:00:53 00:25:25 8:28 min/m 80 Finished
76 Dewi Powell 798 01:24:33 Ages 40 - 44 10 Male 71 coventry triathletes 00:10:10 2:32 sec/100m 121 00:01:21 00:45:27 21.1 m/hr 75 00:01:05 00:26:29 8:49 min/m 89 Finished
77 Helen Wilkinson 831 01:24:37 Ages 25 - 29 2 Female 6   00:11:11 2:47 sec/100m 141 00:01:20 00:47:28 20.2 m/hr 88 00:00:59 00:23:38 7:52 min/m 51 Finished
78 Grahame Collinge 779 01:24:59 Ages 50 - 54 15 Male 72   00:09:22 2:20 sec/100m 87 00:02:13 00:44:56 21.4 m/hr 67 00:01:14 00:27:13 9:04 min/m 105 Finished
79 Craig Pattison 869 01:25:13 Ages 30 - 34 12 Male 73   00:09:12 2:18 sec/100m 82 00:03:56 00:43:50 21.9 m/hr 56 00:02:11 00:26:02 8:40 min/m 85 Finished
80 Paul Butler 757 01:25:22 Ages 50 - 54 16 Male 74 Burntwood Triathlon Club 00:09:32 2:23 sec/100m 93 00:03:08 00:45:45 21.0 m/hr 78 00:02:00 00:24:57 8:19 min/m 72 Finished
81 James Tickle 864 01:25:57 Ages 30 - 34 13 Male 75   00:10:29 2:37 sec/100m 130 00:02:30 00:47:16 20.3 m/hr 87 00:02:07 00:23:32 7:50 min/m 48 Finished
82 Christopher Foxall 797 01:26:06 Ages 40 - 44 11 Male 76 SPHINX AC 00:09:04 2:16 sec/100m 75 00:03:58 00:46:50 20.5 m/hr 83 00:02:21 00:23:50 7:56 min/m 57 Finished
83 Katherine Hartley 792 01:26:12 Ages 30 - 34 2 Female 7   00:10:19 2:34 sec/100m 124 00:01:50 00:44:29 21.6 m/hr 63 00:01:04 00:28:28 9:29 min/m 118 Finished
84 Lewis Gearing 756 01:26:30 Ages 20 - 24 5 Male 77   00:09:26 2:21 sec/100m 88 00:02:24 00:50:44 18.9 m/hr 116 00:00:53 00:23:02 7:40 min/m 37 Finished
85 James Glover 832 01:26:36 Ages 35 - 39 10 Male 78   00:09:50 2:27 sec/100m 106 00:02:04 00:48:15 19.9 m/hr 95 00:00:59 00:25:27 8:29 min/m 81 Finished
86 Christopher Fowler 731 01:26:57 Ages 30 - 34 14 Male 79   00:07:22 1:50 sec/100m 24 00:01:35 00:46:56 20.5 m/hr 84 00:01:23 00:29:39 9:53 min/m 126 Finished
87 John Elliott 868 01:26:57 Ages 45 - 49 14 Male 80   00:10:08 2:32 sec/100m 119 00:04:00 00:48:19 19.9 m/hr 97 00:01:59 00:22:29 7:29 min/m 25 Finished
88 Andrew Payne 842 01:27:10 Ages 55 - 59 2 Male 81   00:09:13 2:18 sec/100m 83 00:01:49 00:49:00 19.6 m/hr 104 00:01:01 00:26:06 8:42 min/m 86 Finished
89 Hugh Twigg 813 01:27:15 Ages 17 -18 2 Male 82   00:09:37 2:24 sec/100m 100 00:01:22 00:52:25 18.3 m/hr 124 00:00:38 00:23:12 7:44 min/m 43 Finished
90 Beverley Masterman 738 01:27:18 Ages 30 - 34 3 Female 8 Rugby Triathlon Club 00:07:44 1:56 sec/100m 32 00:01:14 00:48:28 19.8 m/hr 98 00:01:05 00:28:46 9:35 min/m 121 Finished
91 Gareth Beynon 845 01:27:20 Ages 30 - 34 15 Male 83   00:11:07 2:46 sec/100m 139 00:01:53 00:47:33 20.2 m/hr 90 00:01:25 00:25:21 8:27 min/m 79 Finished
92 Ian Girle 854 01:27:50 Ages 40 - 44 12 Male 84   00:12:38 3:09 sec/100m 158 00:02:28 00:45:08 21.3 m/hr 71 00:00:45 00:26:49 8:56 min/m 97 Finished
93 Mandy Parsons 728 01:27:53 Ages 40 - 44 3 Female 9   00:08:24 2:06 sec/100m 50 00:01:55 00:48:50 19.7 m/hr 100 00:02:00 00:26:42 8:54 min/m 95 Finished
94 Peter Barnes 820 01:28:05 Ages 45 - 49 15 Male 85   00:08:17 2:04 sec/100m 48 00:02:48 00:49:33 19.4 m/hr 107 00:01:02 00:26:22 8:47 min/m 88 Finished
95 Sean O'connor 874 01:28:43 Ages 40 - 44 13 Male 86 coventry triathletes 00:12:42 3:10 sec/100m 159 00:02:29 00:44:59 21.3 m/hr 68 00:01:24 00:27:07 9:02 min/m 101 Finished
96 Richard Thompson 788 01:28:44 Ages 35 - 39 11 Male 87 The village a team 00:11:13 2:48 sec/100m 142 00:02:36 00:49:09 19.5 m/hr 106 00:02:09 00:23:35 7:51 min/m 50 Finished
97 Christopher Harrison 803 01:28:59 Ages 70 - 74 1 Male 88   00:10:27 2:36 sec/100m 128 00:01:53 00:48:14 19.9 m/hr 94 00:01:44 00:26:39 8:53 min/m 94 Finished
98 Lisa Wright 784 01:29:08 Ages 30 - 34 4 Female 10   00:08:28 2:07 sec/100m 51 00:01:57 00:49:42 19.3 m/hr 108 00:00:47 00:28:13 9:24 min/m 115 Finished
99 Justin Huckfield 839 01:29:26 Ages 40 - 44 14 Male 89   00:10:38 2:39 sec/100m 133 00:01:43 00:49:00 19.6 m/hr 103 00:01:33 00:26:31 8:50 min/m 90 Finished
100 Nick Herdman 865 01:29:45 Ages 45 - 49 16 Male 90   00:12:07 3:01 sec/100m 152 00:04:27 00:47:28 20.2 m/hr 89 00:01:56 00:23:44 7:54 min/m 54 Finished
101 Trish Hewitt 821 01:29:45 Ages 45 - 49 1 Female 11 Netball Ladies 00:09:20 2:20 sec/100m 85 00:01:54 00:50:30 19.0 m/hr 114 00:01:02 00:26:56 8:58 min/m 98 Finished
102 Helen Morris 774 01:30:02 Ages 50 - 54 1 Female 12   00:08:37 2:09 sec/100m 60 00:02:36 00:50:53 18.9 m/hr 117 00:00:46 00:27:09 9:03 min/m 102 Finished
103 Matt Wilcockson 777 01:30:14 Ages 40 - 44 15 Male 91   00:08:47 2:11 sec/100m 67 00:01:55 00:51:47 18.5 m/hr 121 00:01:06 00:26:38 8:52 min/m 93 Finished
104 Siobhan Grainger 880 01:30:21 Ages 30 - 34 5 Female 13   00:10:26 2:36 sec/100m 127 00:02:37 00:48:52 19.6 m/hr 101 00:01:12 00:27:12 9:04 min/m 104 Finished
105 Mark Aldridge 787 01:30:26 Ages 35 - 39 12 Male 92 The village a team 00:09:38 2:24 sec/100m 101 00:02:56 00:45:01 21.3 m/hr 69 00:03:02 00:29:47 9:55 min/m 129 Finished
106 Hayden Sarjeant 838 01:30:47 Ages 40 - 44 16 Male 93   00:09:02 2:15 sec/100m 74 00:02:51 00:48:52 19.6 m/hr 102 00:02:09 00:27:52 9:17 min/m 110 Finished
107 Dave Bentley 811 01:31:11 Ages 40 - 44 17 Male 94   00:09:26 2:21 sec/100m 89 00:03:55 00:50:10 19.1 m/hr 110 00:00:55 00:26:43 8:54 min/m 96 Finished
108 Wendy Reay 844 01:32:11 Ages 60 - 64 1 Female 14   00:11:14 2:48 sec/100m 143 00:02:31 00:50:24 19.0 m/hr 113 00:02:59 00:25:00 8:20 min/m 74 Finished
109 Owen Mcglinchey 786 01:32:12 Ages 35 - 39 13 Male 95   00:09:09 2:17 sec/100m 80 00:01:53 00:51:20 18.7 m/hr 118 00:01:10 00:28:38 9:32 min/m 120 Finished
110 Daniel Connolly 819 01:32:25 Ages 35 - 39 14 Male 96   00:09:44 2:26 sec/100m 104 00:02:16 00:47:39 20.1 m/hr 91 00:01:29 00:31:17 10:25 min/m 137 Finished
111 Jackie Good 877 01:32:51 Ages 25 - 29 3 Female 15 Netball Ladies 00:12:53 3:13 sec/100m 161 00:01:56 00:44:03 21.8 m/hr 59 00:01:22 00:32:36 10:52 min/m 148 Finished
112 Glenn Palmer 807 01:33:24 Ages 40 - 44 18 Male 97   00:09:07 2:16 sec/100m 77 00:02:40 00:52:15 18.4 m/hr 123 00:01:09 00:28:12 9:24 min/m 114 Finished
113 Darren Hall 762 01:33:36 Ages 40 - 44 19 Male 98   00:08:43 2:10 sec/100m 63 00:04:06 00:49:08 19.5 m/hr 105 00:01:38 00:30:00 10:00 min/m 132 Finished
114 Ian Hodge 872 01:33:53 Ages 55 - 59 3 Male 99   00:14:01 3:30 sec/100m 167 00:01:14 00:46:46 20.5 m/hr 82 00:03:03 00:28:48 9:36 min/m 122 Finished
115 Simeon Connor 871 01:33:54 Ages 55 - 59 4 Male 100 Green Lane Pedallers 00:12:38 3:09 sec/100m 157 00:02:55 00:50:15 19.1 m/hr 111 00:00:54 00:27:10 9:03 min/m 103 Finished
116 Sarah Bakewell 772 01:33:56 Ages 25 - 29 4 Female 16   00:08:01 2:00 sec/100m 43 00:02:05 00:53:00 18.1 m/hr 128 00:02:21 00:28:28 9:29 min/m 117 Finished
117 Mark Mundy 742 01:34:12 Ages 40 - 44 20 Male 101   00:08:30 2:07 sec/100m 54 00:01:39 00:52:32 18.3 m/hr 126 00:01:32 00:29:56 9:58 min/m 131 Finished
118 Robert Senser 834 01:34:13 Ages 25 - 29 8 Male 102 Warwick University Triathlon Club 00:08:53 2:13 sec/100m 71 00:02:09 00:48:06 20.0 m/hr 93 00:02:02 00:33:00 11:00 min/m 149 Finished
119 Sue Rae 875 01:34:42 Ages 45 - 49 2 Female 17 coventry triathletes 00:12:14 3:03 sec/100m 153 00:01:54 00:50:18 19.1 m/hr 112 00:02:08 00:28:06 9:22 min/m 113 Finished
120 Lyn Mcdonald 879 01:35:00 Ages 35 - 39 2 Female 18 NORTHBROOK AC 00:11:51 2:57 sec/100m 148 00:05:29 00:53:33 17.9 m/hr 134 00:01:01 00:23:05 7:41 min/m 38 Finished
121 Andy Sheridan 867 01:35:18 Ages 45 - 49 17 Male 103   00:11:31 2:52 sec/100m 145 00:02:19 00:48:16 19.9 m/hr 96 00:02:23 00:30:48 10:16 min/m 135 Finished
122 John Hulme 886 01:35:45 Ages 45 - 49 18 Male 104   00:10:04 2:31 sec/100m 115 00:01:52 00:52:59 18.1 m/hr 127 00:02:02 00:28:48 9:36 min/m 123 Finished
123 Keith Graham 816 01:36:01 Ages 70 - 74 2 Male 105   00:10:07 2:31 sec/100m 118 00:02:11 00:52:25 18.3 m/hr 125 00:02:46 00:28:31 9:30 min/m 119 Finished
124 Barbara Watts 870 01:36:47 Ages 25 - 29 5 Female 19   00:12:48 3:12 sec/100m 160 00:02:06 00:53:06 18.1 m/hr 130 00:00:47 00:27:58 9:19 min/m 111 Finished
125 Graham Muth 810 01:37:03 Ages 50 - 54 17 Male 106 Birchfield Harriers 00:09:32 2:23 sec/100m 94 00:01:17 00:53:24 18.0 m/hr 132 00:01:28 00:31:20 10:26 min/m 138 Finished
126 Rachael Brogan 843 01:37:19 Ages 25 - 29 6 Female 20   00:09:21 2:20 sec/100m 86 00:03:36 00:55:17 17.4 m/hr 137 00:01:03 00:28:00 9:20 min/m 112 Finished
127 Mark Brock 873 01:37:25 Ages 55 - 59 5 Male 107   00:13:14 3:18 sec/100m 163 00:03:14 00:48:30 19.8 m/hr 99 00:02:31 00:29:54 9:58 min/m 130 Finished
128 Kathryn O'hara 829 01:38:24 Ages 30 - 34 6 Female 21   00:09:16 2:19 sec/100m 84 00:02:14 00:55:21 17.3 m/hr 138 00:00:54 00:30:36 10:12 min/m 134 Finished
129 Ali Phillips 881 01:39:27 Ages 30 - 34 7 Female 22   00:10:19 2:34 sec/100m 126 00:03:30 00:51:38 18.6 m/hr 120 00:00:55 00:33:04 11:01 min/m 150 Finished
130 Nick Foster 890 01:39:52 Ages 30 - 34 16 Male 108   00:12:15 3:03 sec/100m 154 00:03:41 00:53:28 18.0 m/hr 133 00:01:35 00:28:50 9:36 min/m 124 Finished
131 Daniel Cooper 882 01:41:09 Ages 25 - 29 9 Male 109   00:13:33 3:23 sec/100m 166 00:02:16 00:56:17 17.1 m/hr 141 00:01:16 00:27:45 9:15 min/m 109 Finished
132 Karen Burnett 804 01:41:14 Ages 45 - 49 3 Female 23 1485 Tri Club 00:09:30 2:22 sec/100m 91 00:02:10 00:55:54 17.2 m/hr 140 00:01:40 00:31:58 10:39 min/m 145 Finished
133 Neil Gilbert 825 01:41:32 Ages 50 - 54 18 Male 110 coventry triathletes 00:10:36 2:39 sec/100m 132 00:03:01 00:49:58 19.2 m/hr 109 00:02:24 00:35:31 11:50 min/m 162 Finished
134 Karen Weston 824 01:41:53 Ages 35 - 39 3 Female 24   00:10:45 2:41 sec/100m 135 00:01:13 01:01:35 15.6 m/hr 154 00:00:53 00:27:25 9:08 min/m 107 Finished
135 Siobhan Woods 744 01:42:06 Ages 20 - 24 1 Female 25   00:10:07 2:31 sec/100m 117 00:02:36 01:01:13 15.7 m/hr 153 00:01:10 00:26:58 8:59 min/m 99 Finished
136 Angela Fisher 712 01:42:52 Ages 55 - 59 1 Female 26 Nuneaton Triathlon Club 00:07:13 1:48 sec/100m 20 00:02:11 00:57:46 16.6 m/hr 146 00:02:33 00:33:08 11:02 min/m 151 Finished
137 Gary Morrison 853 01:42:57 Ages 35 - 39 15 Male 111   00:14:24 3:36 sec/100m 168 00:01:19 00:56:41 16.9 m/hr 143 00:00:48 00:29:43 9:54 min/m 128 Finished
138 Rory Mcpheators 855 01:42:59 Ages 25 - 29 10 Male 112   00:08:41 2:10 sec/100m 62 00:01:24 01:12:07 13.3 m/hr 168 00:00:37 00:20:08 6:42 min/m 11 Finished
139 Mark Roughton 823 01:43:03 Ages 50 - 54 19 Male 113   00:11:11 2:47 sec/100m 140 00:02:19 01:02:28 15.4 m/hr 158 00:01:15 00:25:48 8:36 min/m 84 Finished
140 Hayley Berry 863 01:43:08 Ages 30 - 34 8 Female 27   00:11:49 2:57 sec/100m 147 00:03:11 00:54:38 17.6 m/hr 135 00:01:40 00:31:49 10:36 min/m 141 Finished
141 Kim Hughes 860 01:43:49 Ages 25 - 29 7 Female 28   00:11:56 2:59 sec/100m 149 00:03:29 00:53:05 18.1 m/hr 129 00:01:02 00:34:15 11:25 min/m 155 Finished
142 Abigail Burke 830 01:44:06 Ages 30 - 34 9 Female 29   00:09:50 2:27 sec/100m 107 00:01:42 00:57:23 16.7 m/hr 145 00:00:34 00:34:34 11:31 min/m 157 Finished
143 Sarah Mcnaney 785 01:44:07 Ages 50 - 54 2 Female 30 NORTHBROOK AC 00:09:08 2:17 sec/100m 78 00:03:28 01:04:02 15.0 m/hr 159 00:01:15 00:26:12 8:44 min/m 87 Finished
144 Linda Richards 847 01:44:30 Ages 40 - 44 4 Female 31 NORTHBROOK AC 00:09:57 2:29 sec/100m 112 00:02:18 01:00:13 15.9 m/hr 151 00:00:55 00:31:05 10:21 min/m 136 Finished
145 Akx Sandhu 857 01:44:49 Ages 45 - 49 19 Male 114   00:11:01 2:45 sec/100m 138 00:03:20 00:51:21 18.7 m/hr 119 00:03:47 00:35:18 11:46 min/m 160 Finished
146 Harry Samra 858 01:44:49 Ages 40 - 44 21 Male 115   00:12:19 3:04 sec/100m 155 00:03:39 00:52:01 18.5 m/hr 122 00:01:32 00:35:17 11:45 min/m 159 Finished
147 Jackie Wardle 849 01:44:57 Ages 40 - 44 5 Female 32 Netball Ladies 00:10:19 2:34 sec/100m 125 00:03:04 00:58:36 16.4 m/hr 147 00:01:21 00:31:36 10:32 min/m 140 Finished
148 Becky Hurd 889 01:45:11 Ages 40 - 44 6 Female 33   00:15:24 3:51 sec/100m 169 00:01:48 00:55:33 17.3 m/hr 139 00:02:04 00:30:30 10:10 min/m 133 Finished
149 Stephanie Sherwin 760 01:45:31 Ages 35 - 39 4 Female 34   00:08:44 2:11 sec/100m 64 00:02:28 00:56:59 16.8 m/hr 144 00:00:52 00:36:26 12:08 min/m 163 Finished
150 Vincent Considine 893 01:45:43 Ages 55 - 59 6 Male 116   00:18:23 4:35 sec/100m 172 00:02:35 00:50:38 19.0 m/hr 115 00:01:48 00:32:17 10:45 min/m 147 Finished
151 Val Thomas 835 01:45:45 Ages 50 - 54 3 Female 35   00:10:04 2:31 sec/100m 116 00:02:32 01:02:02 15.5 m/hr 156 00:02:03 00:29:02 9:40 min/m 125 Finished
152 Tammi Nicklin 876 01:45:57 Ages 40 - 44 7 Female 36 Netball Ladies 00:13:21 3:20 sec/100m 164 00:04:17 00:53:07 18.1 m/hr 131 00:01:44 00:33:25 11:08 min/m 152 Finished
153 Nicola Woodhouse 791 01:45:57 Ages 30 - 34 10 Female 37   00:08:50 2:12 sec/100m 68 00:03:23 00:56:34 17.0 m/hr 142 00:01:53 00:35:15 11:45 min/m 158 Finished
154 Dawn Freeman 846 01:46:43 Ages 40 - 44 8 Female 38   00:12:01 3:00 sec/100m 151 00:02:24 00:59:23 16.2 m/hr 148 00:00:58 00:31:56 10:38 min/m 144 Finished
155 Julie Herdman 848 01:47:37 Ages 40 - 44 9 Female 39 Netball Ladies 00:10:17 2:34 sec/100m 123 00:03:25 01:00:08 16.0 m/hr 150 00:01:54 00:31:51 10:37 min/m 143 Finished
156 Lorraine Beard 850 01:47:55 Ages 40 - 44 10 Female 40 Netball Ladies 00:10:49 2:42 sec/100m 136 00:02:32 01:02:00 15.5 m/hr 155 00:01:02 00:31:30 10:30 min/m 139 Finished
157 Jane Carter 782 01:49:11 Ages 50 - 54 4 Female 41 coventry triathletes 00:08:31 2:07 sec/100m 55 00:02:11 01:00:23 15.9 m/hr 152 00:00:58 00:37:06 12:22 min/m 165 Finished
158 Sarah O'brien 809 01:49:49 Ages 20 - 24 2 Female 42   00:09:35 2:23 sec/100m 98 00:03:06 01:04:14 14.9 m/hr 160 00:00:51 00:32:02 10:40 min/m 146 Finished
159 Rachael Vickers 852 01:50:49 Ages 25 - 29 8 Female 43   00:09:56 2:29 sec/100m 111 00:01:54 00:59:56 16.0 m/hr 149 00:01:58 00:37:03 12:21 min/m 164 Finished
160 Danielle Lovett 827 01:54:42 Ages 25 - 29 9 Female 44   00:13:33 3:23 sec/100m 165 00:04:14 01:02:06 15.5 m/hr 157 00:01:03 00:33:45 11:15 min/m 154 Finished
161 Ashleen Burnett 775 01:56:54 Ages 25 - 29 10 Female 45   00:08:30 2:07 sec/100m 53 00:02:32 01:11:25 13.4 m/hr 167 00:00:54 00:33:32 11:10 min/m 153 Finished
162 Mark Horrell 701 01:57:59 Ages 45 - 49 20 Male 117   00:10:35 2:38 sec/100m 131 00:04:41 00:55:02 17.4 m/hr 136 00:02:39 00:45:00 15:00 min/m 172 Finished
163 Yasmin Villiers 861 01:58:57 Ages 45 - 49 4 Female 46   00:11:43 2:55 sec/100m 146 00:03:26 01:10:20 13.6 m/hr 164 00:01:36 00:31:51 10:37 min/m 142 Finished
164 Hayden Pattison 711 01:59:13 Ages 25 - 29 11 Male 118   00:05:40 1:25 sec/100m 2 00:03:08 01:14:43 12.8 m/hr 170 00:01:12 00:34:28 11:29 min/m 156 Finished
165 Sylvia Guthrie 892 02:02:02 Ages 60 - 64 2 Female 47   00:16:36 4:09 sec/100m 170 00:05:11 01:08:35 14.0 m/hr 161 00:01:57 00:29:40 9:53 min/m 127 Finished
166 Sonia Reynolds 895 02:02:05 Ages 45 - 49 5 Female 48   00:10:29 2:37 sec/100m 129 00:03:07 01:08:48 14.0 m/hr 162 00:01:22 00:38:16 12:45 min/m 166 Finished
167 Julie Wilson 866 02:02:34 Ages 30 - 34 11 Female 49   00:10:56 2:44 sec/100m 137 00:03:11 01:11:24 13.4 m/hr 166 00:01:39 00:35:22 11:47 min/m 161 Finished
168 Wendy Burgess 884 02:06:05 Ages 40 - 44 11 Female 50 Village Coventry 00:12:32 3:08 sec/100m 156 00:04:03 01:09:23 13.8 m/hr 163 00:01:19 00:38:46 12:55 min/m 167 Finished
169 Jo Phipps 796 02:12:10 Ages 30 - 34 12 Female 51   00:09:41 2:25 sec/100m 103 00:02:59 01:19:00 12.2 m/hr 171 00:01:09 00:39:20 13:06 min/m 168 Finished
170 Emma Penny 795 02:14:22 Ages 25 - 29 11 Female 52   00:13:09 3:17 sec/100m 162 00:04:28 01:10:43 13.6 m/hr 165 00:01:41 00:44:19 14:46 min/m 171 Finished
171 Phyllis Wigham 888 02:14:40 Ages 60 - 64 3 Female 53   00:12:00 3:00 sec/100m 150 00:04:59 01:12:52 13.2 m/hr 169 00:02:07 00:42:42 14:14 min/m 170 Finished
172 Sam Lamb 859 02:36:09 Ages 30 - 34 17 Male 119   00:16:58 4:14 sec/100m 171 00:09:40 01:28:53 10.8 m/hr 172 00:00:42 00:39:54 13:18 min/m 169 Finished
  Robert Fryer 702   Ages 25 - 29   Male   Warwick University Triathlon Club 00:05:16 1:19 sec/100m   00:00:42               Withdrawn during race
  Steven James 741   Ages 45 - 49   Male     00:08:14 2:03 sec/100m   00:01:21 00:47:34 20.2 m/hr           Withdrawn during race